sensor_id;sensor_type;location;lat;lon;timestamp;pressure;altitude;pressure_sealevel;temperature;humidity
27840;BME280;15207;42.182;24.308;2023-09-18T00:02:07;99735.44;;;19.21;100.00
27840;BME280;15207;42.182;24.308;2023-09-18T00:04:32;99727.13;;;19.31;100.00
27840;BME280;15207;42.182;24.308;2023-09-18T00:06:59;99730.81;;;19.22;100.00
27840;BME280;15207;42.182;24.308;2023-09-18T00:09:25;99721.34;;;19.26;100.00
27840;BME280;15207;42.182;24.308;2023-09-18T00:11:50;99719.78;;;19.15;100.00
27840;BME280;15207;42.182;24.308;2023-09-18T00:14:16;99726.09;;;19.24;100.00
27840;BME280;15207;42.182;24.308;2023-09-18T00:16:41;99724.75;;;19.36;100.00
27840;BME280;15207;42.182;24.308;2023-09-18T00:19:07;99733.06;;;19.51;100.00
27840;BME280;15207;42.182;24.308;2023-09-18T00:21:35;99729.84;;;19.39;99.80
27840;BME280;15207;42.182;24.308;2023-09-18T00:24:01;99730.38;;;19.51;99.21
27840;BME280;15207;42.182;24.308;2023-09-18T00:26:27;99733.59;;;19.38;100.00
27840;BME280;15207;42.182;24.308;2023-09-18T00:28:52;99731.22;;;19.68;98.19
27840;BME280;15207;42.182;24.308;2023-09-18T00:31:19;99737.66;;;19.59;98.19
27840;BME280;15207;42.182;24.308;2023-09-18T00:33:44;99731.00;;;19.45;99.11
27840;BME280;15207;42.182;24.308;2023-09-18T00:36:10;99736.63;;;19.35;100.00
27840;BME280;15207;42.182;24.308;2023-09-18T00:38:35;99730.16;;;19.36;100.00
27840;BME280;15207;42.182;24.308;2023-09-18T00:41:01;99738.31;;;19.36;100.00
27840;BME280;15207;42.182;24.308;2023-09-18T00:43:26;99731.22;;;19.43;99.30
27840;BME280;15207;42.182;24.308;2023-09-18T00:45:52;99726.78;;;19.34;99.79
27840;BME280;15207;42.182;24.308;2023-09-18T00:48:17;99730.88;;;19.38;99.46
27840;BME280;15207;42.182;24.308;2023-09-18T00:50:46;99724.91;;;19.35;99.80
27840;BME280;15207;42.182;24.308;2023-09-18T00:53:18;99726.41;;;19.21;100.00
27840;BME280;15207;42.182;24.308;2023-09-18T00:55:45;99730.81;;;19.22;100.00
27840;BME280;15207;42.182;24.308;2023-09-18T00:58:10;99731.69;;;19.06;100.00
27840;BME280;15207;42.182;24.308;2023-09-18T01:00:36;99727.56;;;19.01;100.00
27840;BME280;15207;42.182;24.308;2023-09-18T01:03:02;99734.56;;;19.21;99.97
27840;BME280;15207;42.182;24.308;2023-09-18T01:05:34;99736.06;;;19.07;100.00
27840;BME280;15207;42.182;24.308;2023-09-18T01:08:01;99731.47;;;19.07;100.00
27840;BME280;15207;42.182;24.308;2023-09-18T01:10:36;99738.84;;;19.32;98.99
27840;BME280;15207;42.182;24.308;2023-09-18T01:13:12;99745.63;;;19.36;98.23
27840;BME280;15207;42.182;24.308;2023-09-18T01:15:46;99734.75;;;19.27;98.19
27840;BME280;15207;42.182;24.308;2023-09-18T01:18:13;99732.22;;;19.34;98.25
27840;BME280;15207;42.182;24.308;2023-09-18T01:20:39;99734.41;;;19.39;97.49
27840;BME280;15207;42.182;24.308;2023-09-18T01:23:05;99733.88;;;19.27;98.32
27840;BME280;15207;42.182;24.308;2023-09-18T01:25:31;99737.09;;;19.14;98.73
27840;BME280;15207;42.182;24.308;2023-09-18T01:27:58;99730.31;;;19.18;98.82
27840;BME280;15207;42.182;24.308;2023-09-18T01:30:24;99728.78;;;19.07;98.92
27840;BME280;15207;42.182;24.308;2023-09-18T01:32:50;99730.19;;;19.28;98.02
27840;BME280;15207;42.182;24.308;2023-09-18T01:35:16;99732.56;;;19.23;97.69
27840;BME280;15207;42.182;24.308;2023-09-18T01:37:41;99725.41;;;19.47;96.71
27840;BME280;15207;42.182;24.308;2023-09-18T01:40:08;99724.72;;;19.20;97.06
27840;BME280;15207;42.182;24.308;2023-09-18T01:42:35;99731.38;;;19.25;97.34
27840;BME280;15207;42.182;24.308;2023-09-18T01:45:01;99731.81;;;19.12;97.60
27840;BME280;15207;42.182;24.308;2023-09-18T01:47:27;99733.00;;;19.10;97.76
27840;BME280;15207;42.182;24.308;2023-09-18T01:49:52;99735.22;;;19.06;98.19
27840;BME280;15207;42.182;24.308;2023-09-18T01:52:18;99738.41;;;19.01;98.33
27840;BME280;15207;42.182;24.308;2023-09-18T01:54:44;99726.41;;;19.12;97.56
27840;BME280;15207;42.182;24.308;2023-09-18T01:57:10;99725.06;;;19.25;97.19
27840;BME280;15207;42.182;24.308;2023-09-18T01:59:35;99727.81;;;19.50;95.60
27840;BME280;15207;42.182;24.308;2023-09-18T02:02:01;99732.03;;;19.27;95.94
27840;BME280;15207;42.182;24.308;2023-09-18T02:04:29;99729.16;;;19.29;96.40
27840;BME280;15207;42.182;24.308;2023-09-18T02:06:55;99727.81;;;19.33;96.19
27840;BME280;15207;42.182;24.308;2023-09-18T02:09:21;99730.34;;;19.43;95.12
27840;BME280;15207;42.182;24.308;2023-09-18T02:11:47;99733.25;;;19.50;94.99
27840;BME280;15207;42.182;24.308;2023-09-18T02:14:13;99736.97;;;19.49;94.56
27840;BME280;15207;42.182;24.308;2023-09-18T02:16:40;99730.69;;;19.48;93.95
27840;BME280;15207;42.182;24.308;2023-09-18T02:19:06;99740.03;;;19.46;93.88
27840;BME280;15207;42.182;24.308;2023-09-18T02:21:33;99739.34;;;19.52;94.97
27840;BME280;15207;42.182;24.308;2023-09-18T02:23:58;99738.47;;;19.60;94.68
27840;BME280;15207;42.182;24.308;2023-09-18T02:26:24;99737.50;;;19.61;93.74
27840;BME280;15207;42.182;24.308;2023-09-18T02:28:51;99737.13;;;19.64;93.62
27840;BME280;15207;42.182;24.308;2023-09-18T02:31:17;99737.81;;;19.66;93.39
27840;BME280;15207;42.182;24.308;2023-09-18T02:33:43;99733.56;;;19.72;93.47
27840;BME280;15207;42.182;24.308;2023-09-18T02:36:08;99737.97;;;19.73;94.24
27840;BME280;15207;42.182;24.308;2023-09-18T02:38:34;99739.50;;;19.83;93.54
27840;BME280;15207;42.182;24.308;2023-09-18T02:41:00;99736.44;;;19.87;92.04
27840;BME280;15207;42.182;24.308;2023-09-18T02:43:25;99740.19;;;19.86;92.74
27840;BME280;15207;42.182;24.308;2023-09-18T02:45:52;99739.16;;;19.78;91.83
27840;BME280;15207;42.182;24.308;2023-09-18T02:48:18;99744.09;;;19.83;92.05
27840;BME280;15207;42.182;24.308;2023-09-18T02:50:44;99743.91;;;19.93;92.08
27840;BME280;15207;42.182;24.308;2023-09-18T02:53:20;99746.13;;;19.89;92.08
27840;BME280;15207;42.182;24.308;2023-09-18T02:55:51;99747.16;;;19.80;93.25
27840;BME280;15207;42.182;24.308;2023-09-18T02:58:18;99742.41;;;19.49;95.44
27840;BME280;15207;42.182;24.308;2023-09-18T03:00:46;99745.63;;;19.52;95.63
27840;BME280;15207;42.182;24.308;2023-09-18T03:03:12;99744.44;;;19.63;94.99
27840;BME280;15207;42.182;24.308;2023-09-18T03:05:39;99747.84;;;19.65;95.58
27840;BME280;15207;42.182;24.308;2023-09-18T03:08:05;99746.97;;;19.65;95.08
27840;BME280;15207;42.182;24.308;2023-09-18T03:10:39;99748.34;;;19.61;95.47
27840;BME280;15207;42.182;24.308;2023-09-18T03:13:06;99747.66;;;19.67;96.03
27840;BME280;15207;42.182;24.308;2023-09-18T03:15:33;99739.84;;;19.64;97.17
27840;BME280;15207;42.182;24.308;2023-09-18T03:17:59;99742.41;;;19.74;95.81
27840;BME280;15207;42.182;24.308;2023-09-18T03:20:27;99747.47;;;19.77;95.58
27840;BME280;15207;42.182;24.308;2023-09-18T03:22:55;99747.84;;;19.74;95.96
27840;BME280;15207;42.182;24.308;2023-09-18T03:25:21;99742.91;;;19.61;96.58
27840;BME280;15207;42.182;24.308;2023-09-18T03:27:47;99744.78;;;19.68;95.93
27840;BME280;15207;42.182;24.308;2023-09-18T03:30:13;99744.75;;;19.77;94.91
27840;BME280;15207;42.182;24.308;2023-09-18T03:32:43;99745.63;;;19.69;93.94
27840;BME280;15207;42.182;24.308;2023-09-18T03:35:09;99739.69;;;19.65;94.42
27840;BME280;15207;42.182;24.308;2023-09-18T03:37:46;99740.38;;;19.59;96.75
27840;BME280;15207;42.182;24.308;2023-09-18T03:40:11;99751.06;;;19.52;96.48
27840;BME280;15207;42.182;24.308;2023-09-18T03:42:37;99753.94;;;19.34;97.20
27840;BME280;15207;42.182;24.308;2023-09-18T03:45:07;99753.78;;;19.36;98.59
27840;BME280;15207;42.182;24.308;2023-09-18T03:47:35;99746.81;;;19.41;98.83
27840;BME280;15207;42.182;24.308;2023-09-18T03:50:04;99746.63;;;19.35;99.19
27840;BME280;15207;42.182;24.308;2023-09-18T03:52:29;99748.66;;;19.33;98.98
27840;BME280;15207;42.182;24.308;2023-09-18T03:54:55;99749.34;;;19.35;98.65
27840;BME280;15207;42.182;24.308;2023-09-18T03:57:21;99751.38;;;19.33;98.49
27840;BME280;15207;42.182;24.308;2023-09-18T03:59:46;99748.00;;;19.31;99.67
27840;BME280;15207;42.182;24.308;2023-09-18T04:02:11;99747.97;;;19.22;100.00
27840;BME280;15207;42.182;24.308;2023-09-18T04:04:37;99746.78;;;19.08;100.00
27840;BME280;15207;42.182;24.308;2023-09-18T04:07:06;99750.47;;;19.07;100.00
27840;BME280;15207;42.182;24.308;2023-09-18T04:09:32;99750.09;;;19.02;100.00
27840;BME280;15207;42.182;24.308;2023-09-18T04:12:00;99747.88;;;18.89;100.00
27840;BME280;15207;42.182;24.308;2023-09-18T04:14:25;99742.59;;;18.87;100.00
27840;BME280;15207;42.182;24.308;2023-09-18T04:16:51;99751.94;;;18.93;100.00
27840;BME280;15207;42.182;24.308;2023-09-18T04:19:17;99747.56;;;19.00;100.00
27840;BME280;15207;42.182;24.308;2023-09-18T04:21:42;99741.13;;;19.01;100.00
27840;BME280;15207;42.182;24.308;2023-09-18T04:24:08;99738.56;;;19.00;100.00
27840;BME280;15207;42.182;24.308;2023-09-18T04:26:33;99737.09;;;19.06;100.00
27840;BME280;15207;42.182;24.308;2023-09-18T04:29:00;99731.81;;;19.12;100.00
27840;BME280;15207;42.182;24.308;2023-09-18T04:31:26;99725.72;;;19.10;100.00
27840;BME280;15207;42.182;24.308;2023-09-18T04:33:52;99729.31;;;19.11;100.00
27840;BME280;15207;42.182;24.308;2023-09-18T04:36:18;99728.97;;;19.22;100.00
27840;BME280;15207;42.182;24.308;2023-09-18T04:38:43;99729.47;;;19.26;100.00
27840;BME280;15207;42.182;24.308;2023-09-18T04:41:09;99731.19;;;19.35;100.00
27840;BME280;15207;42.182;24.308;2023-09-18T04:43:36;99726.44;;;19.29;100.00
27840;BME280;15207;42.182;24.308;2023-09-18T04:46:03;99731.19;;;19.27;100.00
27840;BME280;15207;42.182;24.308;2023-09-18T04:48:30;99740.88;;;19.38;100.00
27840;BME280;15207;42.182;24.308;2023-09-18T04:50:58;99740.19;;;19.36;100.00
27840;BME280;15207;42.182;24.308;2023-09-18T04:53:25;99744.94;;;19.34;100.00
27840;BME280;15207;42.182;24.308;2023-09-18T04:55:50;99751.41;;;19.41;100.00
27840;BME280;15207;42.182;24.308;2023-09-18T04:58:17;99746.31;;;19.46;100.00
27840;BME280;15207;42.182;24.308;2023-09-18T05:00:43;99749.19;;;19.45;100.00
27840;BME280;15207;42.182;24.308;2023-09-18T05:03:09;99753.75;;;19.44;100.00
27840;BME280;15207;42.182;24.308;2023-09-18T05:05:34;99746.63;;;19.26;100.00
27840;BME280;15207;42.182;24.308;2023-09-18T05:08:01;99759.31;;;19.17;100.00
27840;BME280;15207;42.182;24.308;2023-09-18T05:10:26;99746.78;;;19.25;100.00
27840;BME280;15207;42.182;24.308;2023-09-18T05:12:52;99746.28;;;19.29;100.00
27840;BME280;15207;42.182;24.308;2023-09-18T05:15:24;99742.22;;;19.34;100.00
27840;BME280;15207;42.182;24.308;2023-09-18T05:17:52;99746.63;;;19.43;100.00
27840;BME280;15207;42.182;24.308;2023-09-18T05:20:22;99735.94;;;19.50;100.00
27840;BME280;15207;42.182;24.308;2023-09-18T05:22:50;99745.63;;;19.52;99.73
27840;BME280;15207;42.182;24.308;2023-09-18T05:25:15;99742.06;;;19.52;100.00
27840;BME280;15207;42.182;24.308;2023-09-18T05:27:41;99740.88;;;19.63;100.00
27840;BME280;15207;42.182;24.308;2023-09-18T05:30:15;99747.81;;;19.57;100.00
27840;BME280;15207;42.182;24.308;2023-09-18T05:32:42;99743.09;;;19.59;100.00
27840;BME280;15207;42.182;24.308;2023-09-18T05:35:08;99740.22;;;19.61;100.00
27840;BME280;15207;42.182;24.308;2023-09-18T05:37:36;99736.63;;;19.60;100.00
27840;BME280;15207;42.182;24.308;2023-09-18T05:40:05;99739.53;;;19.67;100.00
27840;BME280;15207;42.182;24.308;2023-09-18T05:42:33;99743.56;;;19.79;98.56
27840;BME280;15207;42.182;24.308;2023-09-18T05:44:58;99749.16;;;19.78;95.92
27840;BME280;15207;42.182;24.308;2023-09-18T05:47:24;99754.28;;;19.89;93.40
27840;BME280;15207;42.182;24.308;2023-09-18T05:49:50;99756.50;;;19.86;94.29
27840;BME280;15207;42.182;24.308;2023-09-18T05:52:15;99747.81;;;19.57;96.51
27840;BME280;15207;42.182;24.308;2023-09-18T05:54:41;99756.47;;;19.69;96.56
27840;BME280;15207;42.182;24.308;2023-09-18T05:57:07;99750.88;;;19.71;95.24
27840;BME280;15207;42.182;24.308;2023-09-18T05:59:32;99759.53;;;19.91;93.37
27840;BME280;15207;42.182;24.308;2023-09-18T06:01:58;99759.19;;;19.69;93.77
27840;BME280;15207;42.182;24.308;2023-09-18T06:04:24;99761.94;;;19.77;92.95
27840;BME280;15207;42.182;24.308;2023-09-18T06:06:49;99766.16;;;19.80;92.31
27840;BME280;15207;42.182;24.308;2023-09-18T06:09:16;99768.72;;;19.81;92.16
27840;BME280;15207;42.182;24.308;2023-09-18T06:11:41;99770.41;;;19.99;90.62
27840;BME280;15207;42.182;24.308;2023-09-18T06:14:07;99774.66;;;20.10;90.21
27840;BME280;15207;42.182;24.308;2023-09-18T06:16:33;99769.34;;;20.25;88.35
27840;BME280;15207;42.182;24.308;2023-09-18T06:18:58;99776.28;;;20.36;86.73
27840;BME280;15207;42.182;24.308;2023-09-18T06:21:25;99771.16;;;20.50;86.35
27840;BME280;15207;42.182;24.308;2023-09-18T06:23:50;99764.84;;;20.57;85.77
27840;BME280;15207;42.182;24.308;2023-09-18T06:26:17;99773.41;;;20.46;86.60
27840;BME280;15207;42.182;24.308;2023-09-18T06:28:43;99768.59;;;20.56;86.92
27840;BME280;15207;42.182;24.308;2023-09-18T06:31:09;99770.78;;;20.53;85.65
27840;BME280;15207;42.182;24.308;2023-09-18T06:33:36;99765.81;;;20.16;87.06
27840;BME280;15207;42.182;24.308;2023-09-18T06:36:02;99764.47;;;19.95;87.59
27840;BME280;15207;42.182;24.308;2023-09-18T06:38:28;99766.34;;;20.12;86.58
27840;BME280;15207;42.182;24.308;2023-09-18T06:40:53;99767.81;;;20.39;85.59
27840;BME280;15207;42.182;24.308;2023-09-18T06:43:20;99765.75;;;20.41;84.85
27840;BME280;15207;42.182;24.308;2023-09-18T06:45:46;99766.78;;;20.80;82.87
27840;BME280;15207;42.182;24.308;2023-09-18T06:48:12;99776.03;;;20.71;82.68
27840;BME280;15207;42.182;24.308;2023-09-18T06:50:39;99778.84;;;20.38;84.13
27840;BME280;15207;42.182;24.308;2023-09-18T06:53:04;99770.03;;;20.19;85.83
27840;BME280;15207;42.182;24.308;2023-09-18T06:55:30;99770.16;;;20.42;84.96
27840;BME280;15207;42.182;24.308;2023-09-18T06:57:55;99774.47;;;20.20;85.48
27840;BME280;15207;42.182;24.308;2023-09-18T07:00:22;99788.38;;;20.33;85.30
27840;BME280;15207;42.182;24.308;2023-09-18T07:02:48;99778.16;;;20.44;84.60
27840;BME280;15207;42.182;24.308;2023-09-18T07:05:14;99771.91;;;20.75;83.44
27840;BME280;15207;42.182;24.308;2023-09-18T07:07:40;99775.34;;;20.69;83.26
27840;BME280;15207;42.182;24.308;2023-09-18T07:10:06;99772.41;;;20.79;83.61
27840;BME280;15207;42.182;24.308;2023-09-18T07:12:31;99771.59;;;20.70;84.03
27840;BME280;15207;42.182;24.308;2023-09-18T07:15:00;99768.94;;;20.93;83.01
27840;BME280;15207;42.182;24.308;2023-09-18T07:17:28;99765.13;;;21.11;82.38
27840;BME280;15207;42.182;24.308;2023-09-18T07:19:53;99767.25;;;21.24;81.48
27840;BME280;15207;42.182;24.308;2023-09-18T07:22:19;99770.97;;;21.54;80.51
27840;BME280;15207;42.182;24.308;2023-09-18T07:24:44;99771.31;;;21.28;81.73
27840;BME280;15207;42.182;24.308;2023-09-18T07:27:11;99770.03;;;21.16;81.42
27840;BME280;15207;42.182;24.308;2023-09-18T07:29:36;99774.47;;;21.17;80.63
27840;BME280;15207;42.182;24.308;2023-09-18T07:32:02;99765.91;;;21.20;80.54
27840;BME280;15207;42.182;24.308;2023-09-18T07:34:28;99767.94;;;21.49;79.21
27840;BME280;15207;42.182;24.308;2023-09-18T07:36:53;99770.75;;;21.33;79.24
27840;BME280;15207;42.182;24.308;2023-09-18T07:39:20;99764.41;;;21.17;78.64
27840;BME280;15207;42.182;24.308;2023-09-18T07:41:46;99774.91;;;21.29;78.64
27840;BME280;15207;42.182;24.308;2023-09-18T07:44:17;99768.13;;;21.24;78.57
27840;BME280;15207;42.182;24.308;2023-09-18T07:46:45;99763.31;;;21.26;78.80
27840;BME280;15207;42.182;24.308;2023-09-18T07:49:10;99763.88;;;21.22;77.82
27840;BME280;15207;42.182;24.308;2023-09-18T07:51:36;99768.94;;;21.25;78.07
27840;BME280;15207;42.182;24.308;2023-09-18T07:54:02;99768.63;;;21.20;78.05
27840;BME280;15207;42.182;24.308;2023-09-18T07:56:28;99763.47;;;21.01;79.49
27840;BME280;15207;42.182;24.308;2023-09-18T07:58:53;99762.81;;;20.99;78.75
27840;BME280;15207;42.182;24.308;2023-09-18T08:01:19;99767.28;;;20.84;78.89
27840;BME280;15207;42.182;24.308;2023-09-18T08:03:47;99759.22;;;20.99;79.36
27840;BME280;15207;42.182;24.308;2023-09-18T08:06:13;99758.34;;;21.07;78.25
27840;BME280;15207;42.182;24.308;2023-09-18T08:08:44;99752.47;;;21.18;78.71
27840;BME280;15207;42.182;24.308;2023-09-18T08:11:10;99747.28;;;21.55;77.55
27840;BME280;15207;42.182;24.308;2023-09-18T08:13:36;99755.44;;;21.55;75.51
27840;BME280;15207;42.182;24.308;2023-09-18T08:16:05;99752.78;;;21.23;75.77
27840;BME280;15207;42.182;24.308;2023-09-18T08:18:31;99755.47;;;21.32;77.71
27840;BME280;15207;42.182;24.308;2023-09-18T08:20:57;99763.38;;;21.18;77.71
27840;BME280;15207;42.182;24.308;2023-09-18T08:23:26;99757.25;;;21.16;77.89
27840;BME280;15207;42.182;24.308;2023-09-18T08:25:51;99743.97;;;21.45;78.11
27840;BME280;15207;42.182;24.308;2023-09-18T08:28:20;99739.34;;;22.22;73.41
27840;BME280;15207;42.182;24.308;2023-09-18T08:30:46;99735.66;;;22.00;74.73
27840;BME280;15207;42.182;24.308;2023-09-18T08:33:15;99738.69;;;21.90;74.52
27840;BME280;15207;42.182;24.308;2023-09-18T08:35:41;99738.69;;;22.05;73.49
27840;BME280;15207;42.182;24.308;2023-09-18T08:38:06;99734.06;;;21.90;73.25
27840;BME280;15207;42.182;24.308;2023-09-18T08:40:33;99740.47;;;21.98;73.36
27840;BME280;15207;42.182;24.308;2023-09-18T08:43:00;99747.50;;;21.92;71.89
27840;BME280;15207;42.182;24.308;2023-09-18T08:45:36;99745.75;;;21.76;73.15
27840;BME280;15207;42.182;24.308;2023-09-18T08:48:03;99736.88;;;21.82;74.00
27840;BME280;15207;42.182;24.308;2023-09-18T08:50:29;99740.09;;;22.16;73.25
27840;BME280;15207;42.182;24.308;2023-09-18T08:52:55;99728.16;;;22.47;67.17
27840;BME280;15207;42.182;24.308;2023-09-18T08:55:21;99720.38;;;22.59;67.90
27840;BME280;15207;42.182;24.308;2023-09-18T08:57:48;99725.16;;;23.09;66.38
27840;BME280;15207;42.182;24.308;2023-09-18T09:00:14;99721.56;;;23.08;66.71
27840;BME280;15207;42.182;24.308;2023-09-18T09:02:45;99704.53;;;23.28;65.19
27840;BME280;15207;42.182;24.308;2023-09-18T09:05:11;99715.38;;;23.21;65.40
27840;BME280;15207;42.182;24.308;2023-09-18T09:07:37;99717.00;;;23.53;65.28
27840;BME280;15207;42.182;24.308;2023-09-18T09:10:03;99704.66;;;23.92;63.50
27840;BME280;15207;42.182;24.308;2023-09-18T09:12:48;99709.25;;;24.13;61.30
27840;BME280;15207;42.182;24.308;2023-09-18T09:15:14;99707.03;;;24.02;61.73
27840;BME280;15207;42.182;24.308;2023-09-18T09:17:41;99705.16;;;24.31;61.99
27840;BME280;15207;42.182;24.308;2023-09-18T09:20:13;99705.66;;;24.48;58.89
27840;BME280;15207;42.182;24.308;2023-09-18T09:22:40;99699.63;;;24.66;58.86
27840;BME280;15207;42.182;24.308;2023-09-18T09:25:27;99707.69;;;24.33;58.59
27840;BME280;15207;42.182;24.308;2023-09-18T09:27:55;99703.94;;;24.96;55.61
27840;BME280;15207;42.182;24.308;2023-09-18T09:30:23;99696.00;;;25.28;53.88
27840;BME280;15207;42.182;24.308;2023-09-18T09:32:50;99711.44;;;24.80;54.53
27840;BME280;15207;42.182;24.308;2023-09-18T09:35:27;99711.91;;;24.35;56.31
27840;BME280;15207;42.182;24.308;2023-09-18T09:37:58;99698.31;;;23.85;57.46
27840;BME280;15207;42.182;24.308;2023-09-18T09:40:25;99697.69;;;23.89;58.37
27840;BME280;15207;42.182;24.308;2023-09-18T09:42:55;99701.28;;;24.19;57.11
27840;BME280;15207;42.182;24.308;2023-09-18T09:45:26;99697.25;;;24.14;58.11
27840;BME280;15207;42.182;24.308;2023-09-18T09:47:53;99685.53;;;24.76;56.79
27840;BME280;15207;42.182;24.308;2023-09-18T09:50:19;99684.13;;;24.87;55.71
27840;BME280;15207;42.182;24.308;2023-09-18T09:52:53;99684.97;;;24.03;57.20
27840;BME280;15207;42.182;24.308;2023-09-18T09:55:30;99675.13;;;24.51;57.05
27840;BME280;15207;42.182;24.308;2023-09-18T09:57:58;99670.66;;;24.92;54.55
27840;BME280;15207;42.182;24.308;2023-09-18T10:00:31;99675.06;;;24.87;54.51
27840;BME280;15207;42.182;24.308;2023-09-18T10:03:04;99669.38;;;24.88;53.46
27840;BME280;15207;42.182;24.308;2023-09-18T10:05:35;99668.38;;;25.03;52.02
27840;BME280;15207;42.182;24.308;2023-09-18T10:08:10;99668.19;;;25.38;51.01
27840;BME280;15207;42.182;24.308;2023-09-18T10:10:39;99672.00;;;25.44;52.73
27840;BME280;15207;42.182;24.308;2023-09-18T10:13:09;99671.66;;;24.78;53.92
27840;BME280;15207;42.182;24.308;2023-09-18T10:15:37;99659.19;;;24.20;55.11
27840;BME280;15207;42.182;24.308;2023-09-18T10:18:05;99657.91;;;24.09;56.78
27840;BME280;15207;42.182;24.308;2023-09-18T10:20:37;99661.28;;;24.66;55.75
27840;BME280;15207;42.182;24.308;2023-09-18T10:23:12;99663.84;;;24.68;53.60
27840;BME280;15207;42.182;24.308;2023-09-18T10:25:45;99660.88;;;24.14;55.90
27840;BME280;15207;42.182;24.308;2023-09-18T10:28:11;99649.25;;;24.12;56.84
27840;BME280;15207;42.182;24.308;2023-09-18T10:30:39;99658.47;;;24.46;55.24
27840;BME280;15207;42.182;24.308;2023-09-18T10:33:06;99658.59;;;24.24;55.24
27840;BME280;15207;42.182;24.308;2023-09-18T10:35:32;99660.44;;;24.17;55.18
27840;BME280;15207;42.182;24.308;2023-09-18T10:38:00;99657.38;;;24.34;54.75
27840;BME280;15207;42.182;24.308;2023-09-18T10:40:26;99655.13;;;24.44;54.32
27840;BME280;15207;42.182;24.308;2023-09-18T10:42:54;99647.22;;;24.21;54.97
27840;BME280;15207;42.182;24.308;2023-09-18T10:45:22;99642.97;;;24.67;54.32
27840;BME280;15207;42.182;24.308;2023-09-18T10:47:48;99648.75;;;24.37;52.40
27840;BME280;15207;42.182;24.308;2023-09-18T10:50:25;99644.25;;;24.71;52.32
27840;BME280;15207;42.182;24.308;2023-09-18T10:52:51;99640.19;;;24.47;52.11
27840;BME280;15207;42.182;24.308;2023-09-18T10:55:17;99638.03;;;24.35;52.37
27840;BME280;15207;42.182;24.308;2023-09-18T10:57:49;99632.66;;;24.13;52.95
27840;BME280;15207;42.182;24.308;2023-09-18T11:00:15;99635.72;;;24.39;52.46
27840;BME280;15207;42.182;24.308;2023-09-18T11:02:42;99633.63;;;24.41;52.27
27840;BME280;15207;42.182;24.308;2023-09-18T11:05:07;99634.88;;;24.38;51.21
27840;BME280;15207;42.182;24.308;2023-09-18T11:07:33;99624.59;;;24.40;51.71
27840;BME280;15207;42.182;24.308;2023-09-18T11:09:59;99630.84;;;24.90;49.73
27840;BME280;15207;42.182;24.308;2023-09-18T11:12:45;99631.38;;;24.65;49.00
27840;BME280;15207;42.182;24.308;2023-09-18T11:15:26;99614.44;;;24.27;49.81
27840;BME280;15207;42.182;24.308;2023-09-18T11:18:01;99618.75;;;24.64;49.87
27840;BME280;15207;42.182;24.308;2023-09-18T11:20:29;99611.25;;;24.86;48.81
27840;BME280;15207;42.182;24.308;2023-09-18T11:28:12;99611.41;;;24.78;48.95
27840;BME280;15207;42.182;24.308;2023-09-18T11:30:49;99607.47;;;24.94;48.54
27840;BME280;15207;42.182;24.308;2023-09-18T11:33:36;99607.69;;;25.40;47.35
27840;BME280;15207;42.182;24.308;2023-09-18T11:36:12;99602.00;;;25.41;46.88
27840;BME280;15207;42.182;24.308;2023-09-18T11:38:54;99600.53;;;25.18;47.00
27840;BME280;15207;42.182;24.308;2023-09-18T11:41:25;99601.59;;;25.17;47.23
27840;BME280;15207;42.182;24.308;2023-09-18T11:43:51;99608.09;;;25.03;46.80
27840;BME280;15207;42.182;24.308;2023-09-18T11:46:20;99600.72;;;24.96;47.17
27840;BME280;15207;42.182;24.308;2023-09-18T11:48:49;99597.78;;;25.39;47.02
27840;BME280;15207;42.182;24.308;2023-09-18T11:51:22;99590.59;;;25.65;46.02
27840;BME280;15207;42.182;24.308;2023-09-18T11:53:51;99590.81;;;25.56;45.13
27840;BME280;15207;42.182;24.308;2023-09-18T11:56:19;99583.03;;;25.26;46.67
27840;BME280;15207;42.182;24.308;2023-09-18T11:58:49;99576.91;;;25.38;46.62
27840;BME280;15207;42.182;24.308;2023-09-18T12:01:15;99577.28;;;25.82;46.36
27840;BME280;15207;42.182;24.308;2023-09-18T12:03:41;99575.63;;;25.54;45.25
27840;BME280;15207;42.182;24.308;2023-09-18T12:06:07;99565.75;;;25.19;46.17
27840;BME280;15207;42.182;24.308;2023-09-18T12:08:34;99579.66;;;25.17;46.42
27840;BME280;15207;42.182;24.308;2023-09-18T12:11:05;99567.66;;;24.98;46.31
27840;BME280;15207;42.182;24.308;2023-09-18T12:13:31;99564.25;;;24.82;46.62
27840;BME280;15207;42.182;24.308;2023-09-18T12:15:57;99563.63;;;25.07;46.01
27840;BME280;15207;42.182;24.308;2023-09-18T12:18:23;99564.72;;;24.93;47.00
27840;BME280;15207;42.182;24.308;2023-09-18T12:20:50;99561.06;;;24.79;47.45
27840;BME280;15207;42.182;24.308;2023-09-18T12:23:16;99553.50;;;24.81;46.83
27840;BME280;15207;42.182;24.308;2023-09-18T12:25:46;99551.22;;;24.91;46.41
27840;BME280;15207;42.182;24.308;2023-09-18T12:28:13;99556.03;;;25.50;45.86
27840;BME280;15207;42.182;24.308;2023-09-18T12:30:41;99542.53;;;25.55;45.40
27840;BME280;15207;42.182;24.308;2023-09-18T12:33:06;99538.59;;;25.97;44.87
27840;BME280;15207;42.182;24.308;2023-09-18T12:35:32;99538.88;;;25.82;44.45
27840;BME280;15207;42.182;24.308;2023-09-18T12:38:00;99537.25;;;25.60;45.23
27840;BME280;15207;42.182;24.308;2023-09-18T12:40:30;99540.28;;;25.98;44.60
27840;BME280;15207;42.182;24.308;2023-09-18T12:42:58;99539.66;;;25.96;43.51
27840;BME280;15207;42.182;24.308;2023-09-18T12:45:25;99535.09;;;25.83;43.91
27840;BME280;15207;42.182;24.308;2023-09-18T12:47:55;99531.88;;;25.93;44.04
27840;BME280;15207;42.182;24.308;2023-09-18T12:50:21;99523.25;;;25.89;43.53
27840;BME280;15207;42.182;24.308;2023-09-18T12:52:47;99526.84;;;25.90;43.46
27840;BME280;15207;42.182;24.308;2023-09-18T12:55:26;99525.63;;;25.72;43.53